sensor_id;sensor_type;location;lat;lon;timestamp;pressure;altitude;pressure_sealevel;temperature;humidity
28448;BME280;15675;52.870;-1.416;2023-02-13T00:01:02;102955.97;;;8.50;100.00
28448;BME280;15675;52.870;-1.416;2023-02-13T00:03:28;102960.72;;;8.06;100.00
28448;BME280;15675;52.870;-1.416;2023-02-13T00:05:54;102960.97;;;8.29;100.00
28448;BME280;15675;52.870;-1.416;2023-02-13T00:08:19;102958.44;;;8.65;100.00
28448;BME280;15675;52.870;-1.416;2023-02-13T00:10:46;102958.63;;;8.70;100.00
28448;BME280;15675;52.870;-1.416;2023-02-13T00:13:12;102961.38;;;8.55;100.00
28448;BME280;15675;52.870;-1.416;2023-02-13T00:15:37;102955.38;;;8.56;100.00
28448;BME280;15675;52.870;-1.416;2023-02-13T00:18:03;102963.03;;;8.90;100.00
28448;BME280;15675;52.870;-1.416;2023-02-13T00:20:29;102960.28;;;8.15;100.00
28448;BME280;15675;52.870;-1.416;2023-02-13T00:22:54;102954.13;;;7.95;100.00
28448;BME280;15675;52.870;-1.416;2023-02-13T00:25:20;102951.19;;;7.87;100.00
28448;BME280;15675;52.870;-1.416;2023-02-13T00:27:46;102946.72;;;7.85;100.00
28448;BME280;15675;52.870;-1.416;2023-02-13T00:30:12;102953.69;;;7.86;100.00
28448;BME280;15675;52.870;-1.416;2023-02-13T00:32:37;102950.59;;;7.93;100.00
28448;BME280;15675;52.870;-1.416;2023-02-13T00:35:03;102942.06;;;7.77;100.00
28448;BME280;15675;52.870;-1.416;2023-02-13T00:37:29;102956.69;;;7.77;100.00
28448;BME280;15675;52.870;-1.416;2023-02-13T00:39:55;102952.47;;;7.79;100.00
28448;BME280;15675;52.870;-1.416;2023-02-13T00:42:20;102955.34;;;7.67;100.00
28448;BME280;15675;52.870;-1.416;2023-02-13T00:44:51;102947.66;;;7.85;100.00
28448;BME280;15675;52.870;-1.416;2023-02-13T00:47:17;102948.31;;;7.65;100.00
28448;BME280;15675;52.870;-1.416;2023-02-13T00:49:43;102939.47;;;7.77;100.00
28448;BME280;15675;52.870;-1.416;2023-02-13T00:52:09;102937.41;;;7.70;100.00
28448;BME280;15675;52.870;-1.416;2023-02-13T00:54:34;102932.53;;;7.76;100.00
28448;BME280;15675;52.870;-1.416;2023-02-13T00:57:00;102937.19;;;7.84;100.00
28448;BME280;15675;52.870;-1.416;2023-02-13T00:59:26;102937.53;;;7.73;100.00
28448;BME280;15675;52.870;-1.416;2023-02-13T01:01:51;102940.34;;;7.78;100.00
28448;BME280;15675;52.870;-1.416;2023-02-13T01:04:17;102944.03;;;7.65;100.00
28448;BME280;15675;52.870;-1.416;2023-02-13T01:06:42;102943.13;;;7.81;100.00
28448;BME280;15675;52.870;-1.416;2023-02-13T01:09:08;102939.69;;;7.64;100.00
28448;BME280;15675;52.870;-1.416;2023-02-13T01:11:33;102938.03;;;7.66;100.00
28448;BME280;15675;52.870;-1.416;2023-02-13T01:13:59;102937.47;;;7.72;100.00
28448;BME280;15675;52.870;-1.416;2023-02-13T01:16:25;102927.72;;;7.66;100.00
28448;BME280;15675;52.870;-1.416;2023-02-13T01:18:50;102937.59;;;7.91;100.00
28448;BME280;15675;52.870;-1.416;2023-02-13T01:21:18;102927.28;;;7.75;100.00
28448;BME280;15675;52.870;-1.416;2023-02-13T01:23:45;102931.31;;;8.04;100.00
28448;BME280;15675;52.870;-1.416;2023-02-13T01:26:16;102929.03;;;7.92;100.00
28448;BME280;15675;52.870;-1.416;2023-02-13T01:28:42;102934.94;;;8.08;100.00
28448;BME280;15675;52.870;-1.416;2023-02-13T01:31:08;102936.44;;;7.68;100.00
28448;BME280;15675;52.870;-1.416;2023-02-13T01:33:34;102934.78;;;8.05;100.00
28448;BME280;15675;52.870;-1.416;2023-02-13T01:36:07;102938.78;;;7.98;100.00
28448;BME280;15675;52.870;-1.416;2023-02-13T01:38:33;102934.78;;;7.87;100.00
28448;BME280;15675;52.870;-1.416;2023-02-13T01:40:59;102933.47;;;8.13;100.00
28448;BME280;15675;52.870;-1.416;2023-02-13T01:44:03;102926.75;;;7.64;100.00
28448;BME280;15675;52.870;-1.416;2023-02-13T01:46:37;102928.00;;;8.07;100.00
28448;BME280;15675;52.870;-1.416;2023-02-13T01:49:24;102930.00;;;7.78;100.00
28448;BME280;15675;52.870;-1.416;2023-02-13T01:51:53;102937.22;;;8.02;100.00
28448;BME280;15675;52.870;-1.416;2023-02-13T01:54:24;102935.75;;;7.72;100.00
28448;BME280;15675;52.870;-1.416;2023-02-13T01:56:59;102924.75;;;7.93;100.00
28448;BME280;15675;52.870;-1.416;2023-02-13T01:59:32;102930.72;;;7.92;100.00
28448;BME280;15675;52.870;-1.416;2023-02-13T02:01:59;102923.97;;;7.77;100.00
28448;BME280;15675;52.870;-1.416;2023-02-13T02:04:29;102931.44;;;7.71;100.00
28448;BME280;15675;52.870;-1.416;2023-02-13T02:07:00;102924.38;;;7.85;100.00
28448;BME280;15675;52.870;-1.416;2023-02-13T02:09:33;102921.94;;;7.88;100.00
28448;BME280;15675;52.870;-1.416;2023-02-13T02:12:13;102917.00;;;7.76;100.00
28448;BME280;15675;52.870;-1.416;2023-02-13T02:14:42;102915.47;;;7.80;100.00
28448;BME280;15675;52.870;-1.416;2023-02-13T02:17:08;102915.34;;;7.95;100.00
28448;BME280;15675;52.870;-1.416;2023-02-13T02:19:54;102913.84;;;8.17;100.00
28448;BME280;15675;52.870;-1.416;2023-02-13T02:34:24;102898.91;;;8.11;100.00
28448;BME280;15675;52.870;-1.416;2023-02-13T02:42:13;102905.56;;;8.24;100.00
28448;BME280;15675;52.870;-1.416;2023-02-13T02:44:59;102909.25;;;8.11;100.00
28448;BME280;15675;52.870;-1.416;2023-02-13T02:47:34;102909.81;;;7.87;100.00
28448;BME280;15675;52.870;-1.416;2023-02-13T02:50:38;102901.47;;;7.93;100.00
28448;BME280;15675;52.870;-1.416;2023-02-13T02:53:08;102904.00;;;7.75;100.00
28448;BME280;15675;52.870;-1.416;2023-02-13T02:55:47;102901.34;;;7.73;100.00
28448;BME280;15675;52.870;-1.416;2023-02-13T02:58:23;102900.66;;;7.59;100.00
28448;BME280;15675;52.870;-1.416;2023-02-13T03:01:12;102899.81;;;7.42;100.00
28448;BME280;15675;52.870;-1.416;2023-02-13T03:03:57;102891.16;;;7.76;100.00
28448;BME280;15675;52.870;-1.416;2023-02-13T03:09:16;102889.38;;;7.41;100.00
28448;BME280;15675;52.870;-1.416;2023-02-13T03:12:02;102882.66;;;7.61;100.00
28448;BME280;15675;52.870;-1.416;2023-02-13T03:14:47;102897.81;;;7.71;100.00
28448;BME280;15675;52.870;-1.416;2023-02-13T03:17:15;102894.44;;;7.90;100.00
28448;BME280;15675;52.870;-1.416;2023-02-13T03:26:11;102884.97;;;7.73;100.00
28448;BME280;15675;52.870;-1.416;2023-02-13T03:28:26;102888.50;;;7.75;100.00
28448;BME280;15675;52.870;-1.416;2023-02-13T03:31:26;102894.66;;;7.42;100.00
28448;BME280;15675;52.870;-1.416;2023-02-13T03:34:00;102889.91;;;7.68;100.00
28448;BME280;15675;52.870;-1.416;2023-02-13T03:42:36;102880.25;;;7.48;100.00
28448;BME280;15675;52.870;-1.416;2023-02-13T03:45:11;102882.53;;;7.41;100.00
28448;BME280;15675;52.870;-1.416;2023-02-13T03:47:57;102887.84;;;7.79;100.00
28448;BME280;15675;52.870;-1.416;2023-02-13T03:50:25;102879.50;;;7.85;100.00
28448;BME280;15675;52.870;-1.416;2023-02-13T03:52:55;102878.16;;;7.57;100.00
28448;BME280;15675;52.870;-1.416;2023-02-13T03:55:30;102882.38;;;7.73;100.00
28448;BME280;15675;52.870;-1.416;2023-02-13T03:58:20;102874.91;;;7.79;100.00
28448;BME280;15675;52.870;-1.416;2023-02-13T04:01:07;102877.22;;;7.38;100.00
28448;BME280;15675;52.870;-1.416;2023-02-13T04:03:50;102873.50;;;7.68;100.00
28448;BME280;15675;52.870;-1.416;2023-02-13T04:06:23;102879.06;;;7.75;100.00
28448;BME280;15675;52.870;-1.416;2023-02-13T04:08:50;102867.53;;;7.69;100.00
28448;BME280;15675;52.870;-1.416;2023-02-13T04:11:35;102874.03;;;7.78;100.00
28448;BME280;15675;52.870;-1.416;2023-02-13T04:15:08;102878.31;;;7.78;100.00
28448;BME280;15675;52.870;-1.416;2023-02-13T04:17:22;102870.06;;;7.51;100.00
28448;BME280;15675;52.870;-1.416;2023-02-13T04:19:48;102870.22;;;7.54;100.00
28448;BME280;15675;52.870;-1.416;2023-02-13T04:22:14;102870.31;;;7.55;100.00
28448;BME280;15675;52.870;-1.416;2023-02-13T04:24:40;102869.63;;;7.59;100.00
28448;BME280;15675;52.870;-1.416;2023-02-13T04:27:05;102864.66;;;7.63;100.00
28448;BME280;15675;52.870;-1.416;2023-02-13T04:29:31;102868.94;;;7.80;100.00
28448;BME280;15675;52.870;-1.416;2023-02-13T04:31:56;102858.31;;;7.92;100.00
28448;BME280;15675;52.870;-1.416;2023-02-13T04:34:22;102859.72;;;8.21;100.00
28448;BME280;15675;52.870;-1.416;2023-02-13T04:36:47;102859.63;;;7.84;100.00
28448;BME280;15675;52.870;-1.416;2023-02-13T04:39:13;102860.59;;;7.86;100.00
28448;BME280;15675;52.870;-1.416;2023-02-13T04:41:38;102860.31;;;8.16;100.00
28448;BME280;15675;52.870;-1.416;2023-02-13T04:44:04;102854.69;;;8.06;100.00
28448;BME280;15675;52.870;-1.416;2023-02-13T04:46:29;102860.72;;;7.71;100.00
28448;BME280;15675;52.870;-1.416;2023-02-13T04:48:55;102866.44;;;7.82;100.00
28448;BME280;15675;52.870;-1.416;2023-02-13T04:51:20;102872.47;;;7.82;100.00
28448;BME280;15675;52.870;-1.416;2023-02-13T04:53:46;102873.97;;;7.77;100.00
28448;BME280;15675;52.870;-1.416;2023-02-13T04:56:11;102873.38;;;7.83;100.00
28448;BME280;15675;52.870;-1.416;2023-02-13T04:58:37;102866.66;;;8.04;100.00
28448;BME280;15675;52.870;-1.416;2023-02-13T05:01:10;102873.75;;;7.90;100.00
28448;BME280;15675;52.870;-1.416;2023-02-13T05:03:36;102868.41;;;7.69;100.00
28448;BME280;15675;52.870;-1.416;2023-02-13T05:06:01;102869.81;;;7.63;100.00
28448;BME280;15675;52.870;-1.416;2023-02-13T05:08:27;102863.22;;;7.51;100.00
28448;BME280;15675;52.870;-1.416;2023-02-13T05:10:52;102867.97;;;7.60;100.00
28448;BME280;15675;52.870;-1.416;2023-02-13T05:13:18;102862.78;;;7.60;100.00
28448;BME280;15675;52.870;-1.416;2023-02-13T05:15:47;102861.31;;;7.65;100.00
28448;BME280;15675;52.870;-1.416;2023-02-13T05:18:12;102852.38;;;7.76;100.00
28448;BME280;15675;52.870;-1.416;2023-02-13T05:20:38;102847.13;;;7.57;100.00
28448;BME280;15675;52.870;-1.416;2023-02-13T05:23:03;102852.06;;;7.52;100.00
28448;BME280;15675;52.870;-1.416;2023-02-13T05:25:47;102848.84;;;7.74;100.00
28448;BME280;15675;52.870;-1.416;2023-02-13T05:28:12;102850.38;;;7.71;100.00
28448;BME280;15675;52.870;-1.416;2023-02-13T05:30:57;102846.81;;;7.51;100.00
28448;BME280;15675;52.870;-1.416;2023-02-13T05:33:22;102846.28;;;7.58;100.00
28448;BME280;15675;52.870;-1.416;2023-02-13T05:35:48;102842.22;;;7.80;100.00
28448;BME280;15675;52.870;-1.416;2023-02-13T05:38:13;102847.22;;;7.58;100.00
28448;BME280;15675;52.870;-1.416;2023-02-13T05:40:39;102847.97;;;7.39;100.00
28448;BME280;15675;52.870;-1.416;2023-02-13T05:43:04;102844.72;;;7.43;100.00
28448;BME280;15675;52.870;-1.416;2023-02-13T05:45:30;102840.91;;;7.53;100.00
28448;BME280;15675;52.870;-1.416;2023-02-13T05:47:55;102841.25;;;7.43;100.00
28448;BME280;15675;52.870;-1.416;2023-02-13T05:50:22;102838.78;;;7.63;100.00
28448;BME280;15675;52.870;-1.416;2023-02-13T05:52:47;102833.72;;;7.48;100.00
28448;BME280;15675;52.870;-1.416;2023-02-13T05:55:13;102835.44;;;7.47;100.00
28448;BME280;15675;52.870;-1.416;2023-02-13T05:57:38;102846.63;;;7.64;100.00
28448;BME280;15675;52.870;-1.416;2023-02-13T06:00:04;102843.31;;;7.67;100.00
28448;BME280;15675;52.870;-1.416;2023-02-13T06:02:30;102849.53;;;7.88;100.00
28448;BME280;15675;52.870;-1.416;2023-02-13T06:04:55;102852.31;;;7.57;100.00
28448;BME280;15675;52.870;-1.416;2023-02-13T06:07:21;102854.06;;;7.58;100.00
28448;BME280;15675;52.870;-1.416;2023-02-13T06:09:47;102854.09;;;7.94;100.00
28448;BME280;15675;52.870;-1.416;2023-02-13T06:12:12;102853.44;;;7.80;100.00
28448;BME280;15675;52.870;-1.416;2023-02-13T06:14:38;102856.41;;;7.53;100.00
28448;BME280;15675;52.870;-1.416;2023-02-13T06:17:03;102845.06;;;7.50;100.00
28448;BME280;15675;52.870;-1.416;2023-02-13T06:19:29;102844.25;;;7.69;100.00
28448;BME280;15675;52.870;-1.416;2023-02-13T06:21:54;102840.91;;;7.53;100.00
28448;BME280;15675;52.870;-1.416;2023-02-13T06:24:20;102847.09;;;7.39;100.00
28448;BME280;15675;52.870;-1.416;2023-02-13T06:26:45;102850.88;;;7.46;100.00
28448;BME280;15675;52.870;-1.416;2023-02-13T06:29:11;102856.59;;;7.74;100.00
28448;BME280;15675;52.870;-1.416;2023-02-13T06:31:37;102839.31;;;7.73;100.00
28448;BME280;15675;52.870;-1.416;2023-02-13T06:34:03;102841.81;;;7.72;100.00
28448;BME280;15675;52.870;-1.416;2023-02-13T06:36:28;102838.22;;;7.86;100.00
28448;BME280;15675;52.870;-1.416;2023-02-13T06:38:54;102843.06;;;7.62;100.00
28448;BME280;15675;52.870;-1.416;2023-02-13T06:41:20;102843.53;;;7.71;100.00
28448;BME280;15675;52.870;-1.416;2023-02-13T06:43:45;102850.22;;;7.68;100.00
28448;BME280;15675;52.870;-1.416;2023-02-13T06:46:11;102842.44;;;7.84;100.00
28448;BME280;15675;52.870;-1.416;2023-02-13T06:48:36;102847.75;;;7.87;100.00
28448;BME280;15675;52.870;-1.416;2023-02-13T06:51:02;102841.63;;;7.85;100.00
28448;BME280;15675;52.870;-1.416;2023-02-13T06:53:28;102840.47;;;7.62;100.00
28448;BME280;15675;52.870;-1.416;2023-02-13T06:55:54;102838.75;;;7.45;100.00
28448;BME280;15675;52.870;-1.416;2023-02-13T06:58:21;102837.22;;;7.48;100.00
28448;BME280;15675;52.870;-1.416;2023-02-13T07:00:47;102843.97;;;7.63;100.00
28448;BME280;15675;52.870;-1.416;2023-02-13T07:03:14;102844.88;;;7.81;100.00
28448;BME280;15675;52.870;-1.416;2023-02-13T07:05:40;102843.91;;;7.97;100.00
28448;BME280;15675;52.870;-1.416;2023-02-13T07:08:07;102847.50;;;7.65;100.00
28448;BME280;15675;52.870;-1.416;2023-02-13T07:10:32;102849.78;;;7.76;100.00
28448;BME280;15675;52.870;-1.416;2023-02-13T07:12:58;102852.53;;;7.62;100.00
28448;BME280;15675;52.870;-1.416;2023-02-13T07:15:24;102857.03;;;7.66;100.00
28448;BME280;15675;52.870;-1.416;2023-02-13T07:17:56;102849.50;;;8.06;100.00
28448;BME280;15675;52.870;-1.416;2023-02-13T07:20:22;102853.13;;;8.28;100.00
28448;BME280;15675;52.870;-1.416;2023-02-13T07:22:47;102846.72;;;8.20;100.00
28448;BME280;15675;52.870;-1.416;2023-02-13T07:25:13;102847.28;;;8.50;100.00
28448;BME280;15675;52.870;-1.416;2023-02-13T07:27:39;102841.00;;;8.27;100.00
28448;BME280;15675;52.870;-1.416;2023-02-13T07:30:05;102842.53;;;7.51;100.00
28448;BME280;15675;52.870;-1.416;2023-02-13T07:32:30;102840.94;;;7.71;100.00
28448;BME280;15675;52.870;-1.416;2023-02-13T07:34:56;102841.22;;;7.77;100.00
28448;BME280;15675;52.870;-1.416;2023-02-13T07:37:21;102836.34;;;8.20;100.00
28448;BME280;15675;52.870;-1.416;2023-02-13T07:39:47;102839.59;;;7.62;100.00
28448;BME280;15675;52.870;-1.416;2023-02-13T07:42:13;102832.38;;;7.38;100.00
28448;BME280;15675;52.870;-1.416;2023-02-13T07:44:38;102840.84;;;7.52;100.00
28448;BME280;15675;52.870;-1.416;2023-02-13T07:47:04;102836.78;;;7.57;100.00
28448;BME280;15675;52.870;-1.416;2023-02-13T07:49:29;102840.03;;;7.18;100.00
28448;BME280;15675;52.870;-1.416;2023-02-13T07:51:56;102841.56;;;7.15;100.00
28448;BME280;15675;52.870;-1.416;2023-02-13T07:54:22;102838.03;;;7.47;100.00
28448;BME280;15675;52.870;-1.416;2023-02-13T07:56:48;102834.44;;;7.11;100.00
28448;BME280;15675;52.870;-1.416;2023-02-13T07:59:14;102831.44;;;7.36;100.00
28448;BME280;15675;52.870;-1.416;2023-02-13T08:01:40;102826.47;;;7.06;100.00
28448;BME280;15675;52.870;-1.416;2023-02-13T08:04:05;102829.50;;;7.32;100.00
28448;BME280;15675;52.870;-1.416;2023-02-13T08:06:31;102825.19;;;7.14;100.00
28448;BME280;15675;52.870;-1.416;2023-02-13T08:08:56;102821.81;;;7.33;100.00
28448;BME280;15675;52.870;-1.416;2023-02-13T08:11:40;102821.69;;;7.14;100.00
28448;BME280;15675;52.870;-1.416;2023-02-13T08:14:20;102818.38;;;7.33;100.00
28448;BME280;15675;52.870;-1.416;2023-02-13T08:16:45;102813.75;;;7.62;100.00
28448;BME280;15675;52.870;-1.416;2023-02-13T08:19:11;102831.16;;;7.48;100.00
28448;BME280;15675;52.870;-1.416;2023-02-13T08:21:36;102824.19;;;7.47;100.00
28448;BME280;15675;52.870;-1.416;2023-02-13T08:24:03;102830.44;;;7.86;100.00
28448;BME280;15675;52.870;-1.416;2023-02-13T08:26:32;102838.28;;;7.88;100.00
28448;BME280;15675;52.870;-1.416;2023-02-13T08:28:59;102837.16;;;8.01;100.00
28448;BME280;15675;52.870;-1.416;2023-02-13T08:31:25;102833.78;;;7.66;100.00
28448;BME280;15675;52.870;-1.416;2023-02-13T08:33:50;102834.47;;;7.45;100.00
28448;BME280;15675;52.870;-1.416;2023-02-13T08:36:16;102845.66;;;7.11;100.00
28448;BME280;15675;52.870;-1.416;2023-02-13T08:38:45;102838.47;;;7.22;100.00
28448;BME280;15675;52.870;-1.416;2023-02-13T08:41:12;102839.34;;;7.22;100.00
28448;BME280;15675;52.870;-1.416;2023-02-13T08:43:37;102842.06;;;7.42;100.00
28448;BME280;15675;52.870;-1.416;2023-02-13T08:46:03;102843.00;;;7.78;100.00
28448;BME280;15675;52.870;-1.416;2023-02-13T08:48:28;102857.53;;;7.58;100.00
28448;BME280;15675;52.870;-1.416;2023-02-13T08:50:54;102843.53;;;7.71;100.00
28448;BME280;15675;52.870;-1.416;2023-02-13T08:53:20;102844.34;;;7.36;100.00
28448;BME280;15675;52.870;-1.416;2023-02-13T08:55:56;102857.22;;;7.52;100.00
28448;BME280;15675;52.870;-1.416;2023-02-13T08:58:22;102847.59;;;7.32;100.00
28448;BME280;15675;52.870;-1.416;2023-02-13T09:00:48;102852.88;;;7.51;100.00
28448;BME280;15675;52.870;-1.416;2023-02-13T09:03:14;102850.88;;;7.64;100.00
28448;BME280;15675;52.870;-1.416;2023-02-13T09:05:39;102843.13;;;7.46;100.00
28448;BME280;15675;52.870;-1.416;2023-02-13T09:08:05;102842.91;;;7.24;100.00
28448;BME280;15675;52.870;-1.416;2023-02-13T09:10:33;102846.06;;;7.02;100.00
28448;BME280;15675;52.870;-1.416;2023-02-13T09:12:59;102846.78;;;7.33;100.00
28448;BME280;15675;52.870;-1.416;2023-02-13T09:15:25;102847.44;;;7.29;100.00
28448;BME280;15675;52.870;-1.416;2023-02-13T09:17:51;102841.84;;;7.21;100.00
28448;BME280;15675;52.870;-1.416;2023-02-13T09:20:17;102835.94;;;7.40;100.00
28448;BME280;15675;52.870;-1.416;2023-02-13T09:22:42;102843.56;;;7.37;100.00
28448;BME280;15675;52.870;-1.416;2023-02-13T09:25:08;102844.53;;;7.22;100.00
28448;BME280;15675;52.870;-1.416;2023-02-13T09:27:35;102842.88;;;7.41;100.00
28448;BME280;15675;52.870;-1.416;2023-02-13T09:30:01;102849.16;;;7.46;100.00
28448;BME280;15675;52.870;-1.416;2023-02-13T09:32:27;102833.41;;;7.76;100.00
28448;BME280;15675;52.870;-1.416;2023-02-13T09:34:52;102840.94;;;7.89;100.00
28448;BME280;15675;52.870;-1.416;2023-02-13T09:37:18;102839.47;;;7.94;100.00
28448;BME280;15675;52.870;-1.416;2023-02-13T09:39:44;102842.06;;;7.94;100.00
28448;BME280;15675;52.870;-1.416;2023-02-13T09:42:22;102841.28;;;8.15;100.00
28448;BME280;15675;52.870;-1.416;2023-02-13T09:44:52;102847.00;;;7.90;100.00
28448;BME280;15675;52.870;-1.416;2023-02-13T09:47:34;102837.88;;;7.62;100.00
28448;BME280;15675;52.870;-1.416;2023-02-13T09:52:37;102832.56;;;7.59;100.00
28448;BME280;15675;52.870;-1.416;2023-02-13T09:55:14;102834.94;;;7.20;100.00
28448;BME280;15675;52.870;-1.416;2023-02-13T10:00:20;102827.84;;;7.16;100.00
28448;BME280;15675;52.870;-1.416;2023-02-13T10:06:00;102827.75;;;7.14;100.00
28448;BME280;15675;52.870;-1.416;2023-02-13T10:16:19;102833.72;;;7.13;100.00
28448;BME280;15675;52.870;-1.416;2023-02-13T10:18:53;102825.28;;;7.34;100.00
28448;BME280;15675;52.870;-1.416;2023-02-13T10:21:25;102819.38;;;7.02;100.00
28448;BME280;15675;52.870;-1.416;2023-02-13T10:24:11;102827.31;;;6.88;100.00
28448;BME280;15675;52.870;-1.416;2023-02-13T10:26:40;102821.31;;;7.06;100.00
28448;BME280;15675;52.870;-1.416;2023-02-13T10:32:26;102832.09;;;7.32;100.00
28448;BME280;15675;52.870;-1.416;2023-02-13T10:34:54;102839.97;;;7.51;100.00
28448;BME280;15675;52.870;-1.416;2023-02-13T10:37:23;102830.72;;;7.38;100.00
28448;BME280;15675;52.870;-1.416;2023-02-13T10:39:50;102829.63;;;7.69;100.00
28448;BME280;15675;52.870;-1.416;2023-02-13T10:42:37;102840.22;;;7.74;100.00
28448;BME280;15675;52.870;-1.416;2023-02-13T10:51:07;102840.91;;;7.53;100.00
28448;BME280;15675;52.870;-1.416;2023-02-13T10:53:58;102844.13;;;7.66;100.00
28448;BME280;15675;52.870;-1.416;2023-02-13T11:01:56;102836.88;;;7.76;100.00
28448;BME280;15675;52.870;-1.416;2023-02-13T11:04:23;102834.28;;;7.76;100.00
28448;BME280;15675;52.870;-1.416;2023-02-13T11:06:54;102824.84;;;7.77;100.00
28448;BME280;15675;52.870;-1.416;2023-02-13T11:09:20;102829.09;;;7.76;100.00
28448;BME280;15675;52.870;-1.416;2023-02-13T11:11:46;102829.13;;;7.94;100.00
28448;BME280;15675;52.870;-1.416;2023-02-13T11:16:44;102825.28;;;8.60;100.00
28448;BME280;15675;52.870;-1.416;2023-02-13T11:19:19;102813.66;;;8.70;100.00
28448;BME280;15675;52.870;-1.416;2023-02-13T11:21:46;102811.88;;;8.31;100.00
28448;BME280;15675;52.870;-1.416;2023-02-13T11:24:18;102814.06;;;8.04;100.00
28448;BME280;15675;52.870;-1.416;2023-02-13T11:26:50;102809.53;;;7.64;100.00
28448;BME280;15675;52.870;-1.416;2023-02-13T11:29:18;102811.97;;;8.15;100.00
28448;BME280;15675;52.870;-1.416;2023-02-13T11:32:04;102814.75;;;8.19;100.00
28448;BME280;15675;52.870;-1.416;2023-02-13T11:34:32;102814.66;;;7.98;100.00
28448;BME280;15675;52.870;-1.416;2023-02-13T11:37:14;102801.34;;;8.46;100.00
28448;BME280;15675;52.870;-1.416;2023-02-13T11:39:42;102800.50;;;8.65;100.00
28448;BME280;15675;52.870;-1.416;2023-02-13T11:42:16;102796.31;;;8.69;100.00
28448;BME280;15675;52.870;-1.416;2023-02-13T11:44:47;102787.38;;;8.62;100.00
28448;BME280;15675;52.870;-1.416;2023-02-13T11:47:13;102776.66;;;8.93;100.00
28448;BME280;15675;52.870;-1.416;2023-02-13T11:49:44;102779.56;;;8.80;100.00
28448;BME280;15675;52.870;-1.416;2023-02-13T11:55:04;102777.47;;;8.71;100.00
28448;BME280;15675;52.870;-1.416;2023-02-13T11:57:35;102779.91;;;8.68;100.00
28448;BME280;15675;52.870;-1.416;2023-02-13T12:02:52;102778.22;;;8.31;100.00
28448;BME280;15675;52.870;-1.416;2023-02-13T12:05:26;102774.94;;;8.53;100.00
28448;BME280;15675;52.870;-1.416;2023-02-13T12:07:57;102771.47;;;8.35;100.00
28448;BME280;15675;52.870;-1.416;2023-02-13T12:10:26;102773.00;;;8.29;100.00
28448;BME280;15675;52.870;-1.416;2023-02-13T12:12:57;102772.69;;;8.61;100.00
28448;BME280;15675;52.870;-1.416;2023-02-13T12:15:35;102772.59;;;8.98;100.00
28448;BME280;15675;52.870;-1.416;2023-02-13T12:39:33;102763.34;;;8.45;100.00
28448;BME280;15675;52.870;-1.416;2023-02-13T12:42:17;102756.75;;;8.71;100.00
28448;BME280;15675;52.870;-1.416;2023-02-13T12:47:26;102741.16;;;8.70;100.00
28448;BME280;15675;52.870;-1.416;2023-02-13T12:53:08;102752.66;;;8.57;100.00
28448;BME280;15675;52.870;-1.416;2023-02-13T13:12:23;102718.16;;;9.18;100.00
28448;BME280;15675;52.870;-1.416;2023-02-13T13:15:04;102718.03;;;9.15;100.00
28448;BME280;15675;52.870;-1.416;2023-02-13T13:26:12;102704.22;;;9.37;99.37
28448;BME280;15675;52.870;-1.416;2023-02-13T13:28:45;102700.25;;;9.03;97.61
28448;BME280;15675;52.870;-1.416;2023-02-13T13:31:12;102694.13;;;9.01;98.40
28448;BME280;15675;52.870;-1.416;2023-02-13T13:33:43;102697.91;;;8.88;98.91
28448;BME280;15675;52.870;-1.416;2023-02-13T13:36:45;102693.16;;;8.99;98.55
28448;BME280;15675;52.870;-1.416;2023-02-13T13:39:19;102690.34;;;9.14;100.00
28448;BME280;15675;52.870;-1.416;2023-02-13T13:44:50;102680.75;;;9.78;98.07
28448;BME280;15675;52.870;-1.416;2023-02-13T13:49:56;102679.44;;;9.66;94.66
28448;BME280;15675;52.870;-1.416;2023-02-13T13:52:33;102679.66;;;9.50;95.21
28448;BME280;15675;52.870;-1.416;2023-02-13T13:55:00;102685.66;;;9.49;96.55
28448;BME280;15675;52.870;-1.416;2023-02-13T14:07:40;102665.16;;;10.25;92.77
28448;BME280;15675;52.870;-1.416;2023-02-13T14:20:41;102660.53;;;10.40;90.24
28448;BME280;15675;52.870;-1.416;2023-02-13T14:23:23;102649.44;;;10.70;88.67
28448;BME280;15675;52.870;-1.416;2023-02-13T14:31:13;102653.97;;;10.03;89.27
28448;BME280;15675;52.870;-1.416;2023-02-13T14:33:42;102641.28;;;10.59;88.33
28448;BME280;15675;52.870;-1.416;2023-02-13T14:36:19;102641.34;;;10.35;87.89
28448;BME280;15675;52.870;-1.416;2023-02-13T14:38:54;102637.16;;;10.16;89.84
28448;BME280;15675;52.870;-1.416;2023-02-13T14:44:37;102636.38;;;9.94;90.14
28448;BME280;15675;52.870;-1.416;2023-02-13T14:49:43;102623.91;;;10.32;89.45
28448;BME280;15675;52.870;-1.416;2023-02-13T14:52:21;102631.59;;;10.53;87.97
28448;BME280;15675;52.870;-1.416;2023-02-13T14:55:15;102630.59;;;10.50;88.10
28448;BME280;15675;52.870;-1.416;2023-02-13T14:57:52;102620.88;;;10.70;89.27
28448;BME280;15675;52.870;-1.416;2023-02-13T15:03:24;102617.94;;;9.87;90.85
28448;BME280;15675;52.870;-1.416;2023-02-13T15:05:55;102627.06;;;10.24;91.36
28448;BME280;15675;52.870;-1.416;2023-02-13T15:08:25;102625.75;;;10.35;90.63
28448;BME280;15675;52.870;-1.416;2023-02-13T15:10:55;102622.47;;;9.92;91.33
28448;BME280;15675;52.870;-1.416;2023-02-13T15:13:30;102618.72;;;10.08;91.18
28448;BME280;15675;52.870;-1.416;2023-02-13T15:16:09;102617.06;;;10.60;90.67
28448;BME280;15675;52.870;-1.416;2023-02-13T15:18:45;102615.91;;;10.50;89.39
28448;BME280;15675;52.870;-1.416;2023-02-13T15:21:16;102611.38;;;10.70;89.28
28448;BME280;15675;52.870;-1.416;2023-02-13T15:23:48;102611.59;;;10.51;90.35
28448;BME280;15675;52.870;-1.416;2023-02-13T15:26:20;102599.22;;;10.44;90.91
28448;BME280;15675;52.870;-1.416;2023-02-13T15:29:12;102610.91;;;10.57;90.47
28448;BME280;15675;52.870;-1.416;2023-02-13T15:31:40;102604.91;;;10.33;90.21
28448;BME280;15675;52.870;-1.416;2023-02-13T15:34:31;102615.53;;;10.40;90.70
28448;BME280;15675;52.870;-1.416;2023-02-13T15:36:59;102608.41;;;10.34;91.11
28448;BME280;15675;52.870;-1.416;2023-02-13T15:39:27;102610.97;;;10.58;91.15